createdAt,value
2023-05-01T00:01:05.447Z,62
2023-05-01T00:02:45.224Z,62
2023-05-01T00:04:24.982Z,62
2023-05-01T00:06:04.784Z,62
2023-05-01T00:07:44.505Z,62
2023-05-01T00:09:24.270Z,62
2023-05-01T00:11:04.134Z,62
2023-05-01T00:12:43.788Z,62
2023-05-01T00:14:23.578Z,62
2023-05-01T00:16:03.330Z,62
2023-05-01T00:17:43.070Z,62
2023-05-01T00:19:22.834Z,62
2023-05-01T00:21:02.633Z,62
2023-05-01T00:22:42.368Z,61
2023-05-01T00:24:22.152Z,61
2023-05-01T00:26:01.902Z,62
2023-05-01T00:27:41.668Z,62
2023-05-01T00:29:21.441Z,61
2023-05-01T00:31:01.185Z,61
2023-05-01T00:32:40.969Z,61
2023-05-01T00:34:20.789Z,61
2023-05-01T00:36:00.561Z,61
2023-05-01T00:37:40.281Z,61
2023-05-01T00:39:20.011Z,61
2023-05-01T00:40:59.797Z,61
2023-05-01T00:42:39.551Z,61
2023-05-01T00:44:19.315Z,61
2023-05-01T00:45:59.118Z,61
2023-05-01T00:47:38.856Z,61
2023-05-01T00:49:18.595Z,61
2023-05-01T00:50:58.389Z,61
2023-05-01T00:52:38.193Z,61
2023-05-01T00:55:57.659Z,60
2023-05-01T00:57:37.422Z,60
2023-05-01T00:59:17.175Z,60
2023-05-01T01:00:57.095Z,61
2023-05-01T01:02:36.708Z,61
2023-05-01T01:04:16.466Z,61
2023-05-01T01:05:56.286Z,60
2023-05-01T01:07:36.020Z,60
2023-05-01T01:09:15.868Z,60
2023-05-01T01:10:55.533Z,60
2023-05-01T01:12:35.275Z,61
2023-05-01T01:14:15.068Z,60
2023-05-01T01:15:54.866Z,60
2023-05-01T01:17:34.593Z,60
2023-05-01T01:19:14.351Z,60
2023-05-01T01:20:54.114Z,60
2023-05-01T01:22:33.868Z,60
2023-05-01T01:24:13.646Z,60
2023-05-01T01:25:53.422Z,60
2023-05-01T01:27:33.171Z,60
2023-05-01T01:29:12.928Z,60
2023-05-01T01:30:52.768Z,60
2023-05-01T01:32:32.476Z,60
2023-05-01T01:34:12.257Z,60
2023-05-01T01:35:52.082Z,60
2023-05-01T01:39:11.541Z,60
2023-05-01T01:40:51.272Z,60
2023-05-01T01:42:31.046Z,60
2023-05-01T01:44:10.819Z,60
2023-05-01T01:45:50.622Z,60
2023-05-01T01:47:30.439Z,60
2023-05-01T01:49:10.131Z,60
2023-05-01T01:50:49.891Z,60
2023-05-01T01:52:29.702Z,59
2023-05-01T01:55:49.164Z,59
2023-05-01T01:57:28.934Z,59
2023-05-01T01:59:08.678Z,59
2023-05-01T02:00:48.519Z,59
2023-05-01T02:02:28.215Z,59
2023-05-01T02:04:07.957Z,59
2023-05-01T02:05:47.741Z,59
2023-05-01T02:07:27.552Z,59
2023-05-01T02:09:07.260Z,59
2023-05-01T02:10:47.107Z,59
2023-05-01T02:12:26.935Z,59
2023-05-01T02:15:46.341Z,59
2023-05-01T02:17:26.082Z,59
2023-05-01T02:19:06.002Z,59
2023-05-01T02:20:45.648Z,59
2023-05-01T02:22:25.364Z,59
2023-05-01T02:24:05.125Z,59
2023-05-01T02:25:44.893Z,59
2023-05-01T02:27:24.674Z,59
2023-05-01T02:29:04.418Z,59
2023-05-01T02:30:44.276Z,59
2023-05-01T02:32:23.978Z,59
2023-05-01T02:35:43.528Z,58
2023-05-01T02:37:23.276Z,58
2023-05-01T02:39:03.012Z,58
2023-05-01T02:40:42.773Z,58
2023-05-01T02:42:22.531Z,58
2023-05-01T02:44:02.334Z,58
2023-05-01T02:45:42.091Z,58
2023-05-01T02:47:21.825Z,58
2023-05-01T02:49:01.604Z,58
2023-05-01T02:50:41.415Z,58
2023-05-01T02:52:21.172Z,58
2023-05-01T02:54:00.902Z,58
2023-05-01T02:55:40.731Z,58
2023-05-01T02:57:20.416Z,58
2023-05-01T02:59:00.215Z,58
2023-05-01T03:00:40.001Z,57
2023-05-01T03:02:19.798Z,57
2023-05-01T03:03:59.472Z,57
2023-05-01T03:05:39.253Z,57
2023-05-01T03:07:18.986Z,57
2023-05-01T03:08:58.772Z,57
2023-05-01T03:10:38.583Z,57
2023-05-01T03:12:18.284Z,57
2023-05-01T03:13:58.048Z,57
2023-05-01T03:15:37.817Z,57
2023-05-01T03:17:17.579Z,57
2023-05-01T03:18:57.346Z,57
2023-05-01T03:20:37.156Z,57
2023-05-01T03:22:16.923Z,57
2023-05-01T03:23:56.619Z,57
2023-05-01T03:25:36.401Z,57
2023-05-01T03:27:16.202Z,57
2023-05-01T03:28:55.932Z,57
2023-05-01T03:30:35.760Z,57
2023-05-01T03:32:15.468Z,57
2023-05-01T03:33:55.226Z,57
2023-05-01T03:35:34.996Z,57
2023-05-01T03:37:14.744Z,57
2023-05-01T03:38:54.512Z,57
2023-05-01T03:40:34.279Z,57
2023-05-01T03:42:14.035Z,57
2023-05-01T03:43:53.912Z,57
2023-05-01T03:45:33.580Z,57
2023-05-01T03:47:13.333Z,58
2023-05-01T03:48:53.089Z,58
2023-05-01T03:50:32.855Z,57
2023-05-01T03:52:12.613Z,58
2023-05-01T03:53:52.374Z,57
2023-05-01T03:55:32.146Z,58
2023-05-01T03:57:11.963Z,58
2023-05-01T03:58:51.676Z,59
2023-05-01T04:00:31.441Z,59
2023-05-01T04:02:11.218Z,59
2023-05-01T04:03:50.970Z,60
2023-05-01T04:05:30.768Z,60
2023-05-01T04:07:10.498Z,61
2023-05-01T04:08:50.264Z,61
2023-05-01T04:10:30.025Z,60
2023-05-01T04:12:09.779Z,61
2023-05-01T04:15:29.309Z,63
2023-05-01T04:17:09.145Z,63
2023-05-01T04:18:48.885Z,63
2023-05-01T04:20:28.633Z,64
2023-05-01T04:22:08.383Z,65
2023-05-01T04:23:48.114Z,65
2023-05-01T04:25:27.992Z,66
2023-05-01T04:27:07.658Z,67
2023-05-01T04:28:47.527Z,68
2023-05-01T04:30:27.213Z,69
2023-05-01T04:32:06.935Z,69
2023-05-01T04:33:46.754Z,70
2023-05-01T04:35:26.484Z,71
2023-05-01T04:37:06.269Z,72
2023-05-01T04:38:46.061Z,73
2023-05-01T04:42:05.604Z,75
2023-05-01T04:43:45.294Z,75
2023-05-01T04:45:25.134Z,77
2023-05-01T04:47:04.818Z,79
2023-05-01T04:48:44.600Z,80
2023-05-01T04:50:24.354Z,80
2023-05-01T04:52:04.116Z,81
2023-05-01T04:53:43.919Z,81
2023-05-01T04:55:23.636Z,82
2023-05-01T04:57:03.406Z,82
2023-05-01T04:58:43.167Z,83
2023-05-01T05:02:02.750Z,84
2023-05-01T05:03:42.468Z,84
2023-05-01T05:05:22.225Z,85
2023-05-01T05:07:01.994Z,86
2023-05-01T05:08:41.763Z,88
2023-05-01T05:10:21.578Z,88
2023-05-01T05:12:01.273Z,88
2023-05-01T05:13:41.030Z,89
2023-05-01T05:15:20.858Z,90
2023-05-01T05:17:00.594Z,90
2023-05-01T05:18:40.336Z,90
2023-05-01T05:20:20.131Z,91
2023-05-01T05:21:59.867Z,92
2023-05-01T05:25:19.378Z,92
2023-05-01T05:26:59.144Z,93
2023-05-01T05:28:38.907Z,94
2023-05-01T05:31:58.449Z,95
2023-05-01T05:35:17.980Z,95
2023-05-01T05:36:57.775Z,96
2023-05-01T05:38:37.495Z,96
2023-05-01T05:40:17.314Z,96
2023-05-01T05:41:57.016Z,96
2023-05-01T05:43:36.801Z,97
2023-05-01T05:45:16.572Z,98
2023-05-01T05:46:56.318Z,98
2023-05-01T05:48:36.088Z,99
2023-05-01T05:50:15.847Z,100
2023-05-01T05:55:15.218Z,99
2023-05-01T05:56:54.891Z,99
2023-05-01T05:58:34.669Z,99
2023-05-01T06:00:14.620Z,100
2023-05-01T06:01:54.276Z,99
2023-05-01T06:05:13.722Z,100
2023-05-01T06:06:53.495Z,99
2023-05-01T06:08:33.268Z,100
2023-05-01T06:10:13.046Z,100
2023-05-01T06:11:52.792Z,100
2023-05-01T06:15:12.298Z,100
2023-05-01T06:16:52.070Z,100
2023-05-01T06:18:31.835Z,100
2023-05-01T06:20:11.666Z,100
2023-05-01T06:21:51.368Z,100
2023-05-01T06:23:31.136Z,100
2023-05-01T06:25:10.895Z,100
2023-05-01T06:26:50.669Z,100
2023-05-01T06:28:30.418Z,100
2023-05-01T06:30:10.177Z,100
2023-05-01T06:31:49.946Z,100
2023-05-01T06:33:29.784Z,100
2023-05-01T06:35:09.460Z,100
2023-05-01T06:36:49.229Z,100
2023-05-01T06:38:28.991Z,100
2023-05-01T06:40:08.836Z,100
2023-05-01T06:41:48.535Z,100
2023-05-01T06:43:28.320Z,100
2023-05-01T06:45:08.061Z,100
2023-05-01T06:46:47.824Z,100
2023-05-01T06:48:27.610Z,100
2023-05-01T06:50:07.410Z,100
2023-05-01T06:51:47.178Z,100
2023-05-01T06:53:26.962Z,100
2023-05-01T06:55:06.695Z,100
2023-05-01T06:56:46.449Z,100
2023-05-01T06:58:26.259Z,100
2023-05-01T07:00:05.934Z,100
2023-05-01T07:01:45.680Z,100
2023-05-01T07:05:05.264Z,100
2023-05-01T07:06:44.977Z,100
2023-05-01T07:08:24.745Z,100
2023-05-01T07:10:04.587Z,100
2023-05-01T07:11:44.282Z,100
2023-05-01T07:13:24.101Z,100
2023-05-01T07:15:03.853Z,100
2023-05-01T07:16:43.581Z,100
2023-05-01T07:18:23.347Z,100
2023-05-01T07:20:03.196Z,100
2023-05-01T07:21:42.905Z,100
2023-05-01T07:25:02.415Z,100
2023-05-01T07:26:42.163Z,100
2023-05-01T07:28:21.954Z,100
2023-05-01T07:30:01.690Z,100
2023-05-01T07:31:41.454Z,100
2023-05-01T07:33:21.201Z,100
2023-05-01T07:35:00.966Z,100
2023-05-01T07:36:40.730Z,100
2023-05-01T07:38:20.631Z,100
2023-05-01T07:40:00.417Z,100
2023-05-01T07:41:40.016Z,100
2023-05-01T07:43:19.856Z,100
2023-05-01T07:44:59.597Z,100
2023-05-01T07:46:39.327Z,100
2023-05-01T07:48:19.090Z,100
2023-05-01T07:49:58.858Z,100
2023-05-01T07:51:38.655Z,100
2023-05-01T07:53:18.446Z,100
2023-05-01T07:54:58.173Z,100
2023-05-01T07:56:37.901Z,100
2023-05-01T07:58:17.711Z,100
2023-05-01T07:59:57.450Z,100
2023-05-01T08:01:37.190Z,100
2023-05-01T08:03:16.950Z,100
2023-05-01T08:04:56.773Z,100
2023-05-01T08:06:36.467Z,100
2023-05-01T08:08:16.250Z,100
2023-05-01T08:09:56.027Z,100
2023-05-01T08:11:35.890Z,100
2023-05-01T08:14:55.342Z,100
2023-05-01T08:16:35.112Z,100
2023-05-01T08:18:14.829Z,100
2023-05-01T08:21:34.356Z,100
2023-05-01T08:24:53.985Z,100
2023-05-01T08:26:33.645Z,100
2023-05-01T08:28:13.479Z,100
2023-05-01T08:29:53.200Z,100
2023-05-01T08:31:32.944Z,100
2023-05-01T08:33:12.708Z,100
2023-05-01T08:34:52.491Z,100
2023-05-01T08:36:32.234Z,100
2023-05-01T08:38:12.004Z,100
2023-05-01T08:39:51.765Z,100
2023-05-01T08:41:31.564Z,100
2023-05-01T08:43:11.302Z,100
2023-05-01T08:44:51.114Z,100
2023-05-01T08:46:30.873Z,100
2023-05-01T08:48:10.589Z,100
2023-05-01T08:49:50.423Z,100
2023-05-01T08:51:30.117Z,100
2023-05-01T08:53:09.873Z,97
2023-05-01T08:54:49.639Z,97
2023-05-01T08:56:29.483Z,99
2023-05-01T08:58:09.175Z,99
2023-05-01T08:59:48.910Z,100
2023-05-01T09:01:28.729Z,100
2023-05-01T09:03:08.444Z,100
2023-05-01T09:04:48.280Z,100
2023-05-01T09:06:28.006Z,100
2023-05-01T09:08:07.755Z,100
2023-05-01T09:09:47.510Z,100
2023-05-01T09:11:27.283Z,100
2023-05-01T09:13:07.041Z,100
2023-05-01T09:14:46.797Z,100
2023-05-01T09:16:26.567Z,100
2023-05-01T09:18:06.341Z,100
2023-05-01T09:19:46.079Z,100
2023-05-01T09:21:25.871Z,100
2023-05-01T09:23:05.646Z,100
2023-05-01T09:24:45.406Z,100
2023-05-01T09:26:25.144Z,100
2023-05-01T09:29:44.824Z,100
2023-05-01T09:31:24.480Z,100
2023-05-01T09:33:04.217Z,100
2023-05-01T09:34:43.960Z,100
2023-05-01T09:36:23.734Z,100
2023-05-01T09:38:03.520Z,100
2023-05-01T09:39:43.355Z,100
2023-05-01T09:41:23.012Z,100
2023-05-01T09:43:02.827Z,100
2023-05-01T09:44:42.573Z,100
2023-05-01T09:48:02.126Z,100
2023-05-01T09:49:41.824Z,100
2023-05-01T09:51:21.734Z,100
2023-05-01T09:53:01.376Z,100
2023-05-01T09:54:41.144Z,100
2023-05-01T09:56:21.056Z,100
2023-05-01T09:58:00.669Z,100
2023-05-01T09:59:40.512Z,100
2023-05-01T10:01:20.339Z,100
2023-05-01T10:02:59.948Z,100
2023-05-01T10:04:39.893Z,100
2023-05-01T10:06:19.677Z,100
2023-05-01T10:07:59.507Z,100
2023-05-01T10:09:39.146Z,100
2023-05-01T10:11:18.765Z,99
2023-05-01T10:12:58.716Z,98
2023-05-01T10:14:38.379Z,99
2023-05-01T10:16:18.209Z,99
2023-05-01T10:17:58.000Z,98
2023-05-01T10:19:37.780Z,100
2023-05-01T10:21:17.553Z,100
2023-05-01T10:22:57.302Z,99
2023-05-01T10:24:37.054Z,99
2023-05-01T10:26:16.705Z,98
2023-05-01T10:27:56.579Z,98
2023-05-01T10:29:36.171Z,99
2023-05-01T10:31:16.108Z,100
2023-05-01T10:32:55.906Z,100
2023-05-01T10:34:35.588Z,100
2023-05-01T10:36:15.432Z,99
2023-05-01T10:37:55.155Z,100
2023-05-01T10:39:34.989Z,100
2023-05-01T10:41:14.702Z,100
2023-05-01T10:42:54.400Z,99
2023-05-01T10:44:34.207Z,100
2023-05-01T10:46:13.815Z,99
2023-05-01T10:47:53.712Z,98
2023-05-01T10:49:33.409Z,98
2023-05-01T10:51:13.274Z,98
2023-05-01T10:52:52.880Z,97
2023-05-01T10:54:32.882Z,99
2023-05-01T10:56:12.397Z,100
2023-05-01T10:57:52.188Z,99
2023-05-01T10:59:32.009Z,99
2023-05-01T11:01:11.762Z,100
2023-05-01T11:02:51.498Z,99
2023-05-01T11:04:31.339Z,99
2023-05-01T11:07:50.757Z,97
2023-05-01T11:09:30.534Z,100
2023-05-01T11:11:10.286Z,97
2023-05-01T11:12:50.136Z,100
2023-05-01T11:14:29.965Z,97
2023-05-01T11:16:09.567Z,99
2023-05-01T11:17:49.347Z,98
2023-05-01T11:19:29.111Z,99
2023-05-01T11:21:08.873Z,98
2023-05-01T11:22:48.638Z,100
2023-05-01T11:24:28.399Z,97
2023-05-01T11:27:47.917Z,97
2023-05-01T11:29:27.718Z,98
2023-05-01T11:31:07.502Z,99
2023-05-01T11:32:47.230Z,97
2023-05-01T11:34:26.984Z,97
2023-05-01T11:36:06.868Z,97
2023-05-01T11:37:46.588Z,100
2023-05-01T11:39:26.281Z,100
2023-05-01T11:41:06.130Z,97
2023-05-01T11:42:45.806Z,99
2023-05-01T11:44:25.569Z,99
2023-05-01T11:46:05.324Z,99
2023-05-01T11:47:45.100Z,99
2023-05-01T11:49:24.980Z,97
2023-05-01T11:51:04.611Z,98
2023-05-01T11:52:44.368Z,98
2023-05-01T11:54:24.225Z,99
2023-05-01T11:56:03.954Z,97
2023-05-01T11:57:43.682Z,100
2023-05-01T12:01:03.380Z,98
2023-05-01T12:02:43.074Z,97
2023-05-01T12:04:22.844Z,97
2023-05-01T12:06:02.639Z,100
2023-05-01T12:07:42.314Z,97
2023-05-01T12:09:22.025Z,97
2023-05-01T12:11:01.805Z,97
2023-05-01T12:12:41.626Z,97
2023-05-01T12:14:21.315Z,96
2023-05-01T12:16:01.270Z,100
2023-05-01T12:17:40.845Z,99
2023-05-01T12:19:20.759Z,100
2023-05-01T12:21:00.450Z,97
2023-05-01T12:22:40.179Z,100
2023-05-01T12:24:19.948Z,96
2023-05-01T12:25:59.668Z,98
2023-05-01T12:27:39.426Z,98
2023-05-01T12:29:19.248Z,100
2023-05-01T12:30:59.063Z,100
2023-05-01T12:32:38.738Z,100
2023-05-01T12:34:18.516Z,100
2023-05-01T12:35:58.256Z,96
2023-05-01T12:37:38.057Z,98
2023-05-01T12:39:17.866Z,100
2023-05-01T12:40:57.563Z,100
2023-05-01T12:42:37.296Z,100
2023-05-01T12:44:17.064Z,100
2023-05-01T12:45:56.952Z,100
2023-05-01T12:47:36.773Z,99
2023-05-01T12:49:16.351Z,100
2023-05-01T12:50:56.346Z,98
2023-05-01T12:52:35.889Z,98
2023-05-01T12:54:15.661Z,98
2023-05-01T12:55:55.491Z,98
2023-05-01T12:57:35.277Z,100
2023-05-01T12:59:15.019Z,100
2023-05-01T13:00:54.802Z,98
2023-05-01T13:02:34.471Z,100
2023-05-01T13:04:14.244Z,97
2023-05-01T13:05:54.020Z,99
2023-05-01T13:07:33.782Z,98
2023-05-01T13:09:13.605Z,100
2023-05-01T13:10:53.281Z,97
2023-05-01T13:12:33.055Z,100
2023-05-01T13:14:12.848Z,100
2023-05-01T13:15:52.574Z,99
2023-05-01T13:17:32.371Z,100
2023-05-01T13:19:12.112Z,100
2023-05-01T13:20:51.875Z,100
2023-05-01T13:22:31.776Z,99
2023-05-01T13:24:11.428Z,100
2023-05-01T13:25:51.185Z,98
2023-05-01T13:27:30.940Z,100
2023-05-01T13:29:10.761Z,100
2023-05-01T13:30:50.550Z,97
2023-05-01T13:32:30.243Z,98
2023-05-01T13:34:09.989Z,99
2023-05-01T13:35:49.750Z,100
2023-05-01T13:37:29.528Z,100
2023-05-01T13:39:09.310Z,99
2023-05-01T13:40:49.132Z,100
2023-05-01T13:42:28.902Z,100
2023-05-01T13:44:08.701Z,100
2023-05-01T13:45:48.418Z,98
2023-05-01T13:47:28.099Z,100
2023-05-01T13:49:08.012Z,100
2023-05-01T13:50:47.650Z,98
2023-05-01T13:52:27.463Z,100
2023-05-01T13:54:07.230Z,100
2023-05-01T13:55:46.946Z,100
2023-05-01T13:57:26.678Z,99
2023-05-01T13:59:06.565Z,100
2023-05-01T14:00:46.322Z,100
2023-05-01T14:02:25.972Z,100
2023-05-01T14:04:05.742Z,100
2023-05-01T14:05:45.511Z,100
2023-05-01T14:07:25.341Z,100
2023-05-01T14:09:05.028Z,100
2023-05-01T14:10:44.812Z,99
2023-05-01T14:12:24.553Z,98
2023-05-01T14:14:04.345Z,100
2023-05-01T14:15:44.195Z,100
2023-05-01T14:17:23.853Z,100
2023-05-01T14:19:03.748Z,98
2023-05-01T14:20:43.379Z,100
2023-05-01T14:22:23.137Z,98
2023-05-01T14:24:03.036Z,100
2023-05-01T14:25:42.693Z,99
2023-05-01T14:27:22.525Z,100
2023-05-01T14:29:02.192Z,100
2023-05-01T14:30:41.966Z,100
2023-05-01T14:32:21.748Z,100
2023-05-01T14:34:01.491Z,100
2023-05-01T14:37:21.050Z,98
2023-05-01T14:39:00.993Z,98
2023-05-01T14:40:40.564Z,97
2023-05-01T14:44:00.099Z,97
2023-05-01T14:45:39.891Z,100
2023-05-01T14:47:19.717Z,100
2023-05-01T14:48:59.417Z,100
2023-05-01T14:50:39.130Z,99
2023-05-01T14:52:18.899Z,98
2023-05-01T14:53:58.700Z,98
2023-05-01T14:55:38.538Z,100
2023-05-01T14:57:18.199Z,100
2023-05-01T14:58:58.056Z,97
2023-05-01T15:00:37.720Z,98
2023-05-01T15:02:17.488Z,98
2023-05-01T15:03:57.254Z,100
2023-05-01T15:07:16.774Z,100
2023-05-01T15:08:56.565Z,98
2023-05-01T15:10:36.302Z,100
2023-05-01T15:12:16.092Z,100
2023-05-01T15:13:55.870Z,98
2023-05-01T15:15:35.732Z,100
2023-05-01T15:17:15.451Z,98
2023-05-01T15:18:55.236Z,100
2023-05-01T15:20:34.926Z,97
2023-05-01T15:22:14.766Z,99
2023-05-01T15:23:54.430Z,100
2023-05-01T15:25:34.279Z,100
2023-05-01T15:27:13.956Z,98
2023-05-01T15:28:53.773Z,100
2023-05-01T15:30:33.496Z,98
2023-05-01T15:32:13.287Z,99
2023-05-01T15:33:53.015Z,100
2023-05-01T15:35:32.805Z,100
2023-05-01T15:37:12.552Z,100
2023-05-01T15:38:52.312Z,100
2023-05-01T15:40:32.075Z,100
2023-05-01T15:42:11.950Z,100
2023-05-01T15:43:51.632Z,98
2023-05-01T15:47:11.145Z,100
2023-05-01T15:48:50.971Z,97
2023-05-01T15:50:30.682Z,98
2023-05-01T15:52:10.422Z,98
2023-05-01T15:53:50.184Z,98
2023-05-01T15:57:09.734Z,100
2023-05-01T15:58:49.515Z,97
2023-05-01T16:00:29.332Z,96
2023-05-01T16:02:09.012Z,100
2023-05-01T16:03:48.771Z,100
2023-05-01T16:05:28.529Z,100
2023-05-01T16:07:08.280Z,99
2023-05-01T16:08:48.050Z,100
2023-05-01T16:10:27.877Z,100
2023-05-01T16:12:07.581Z,100
2023-05-01T16:13:47.352Z,100
2023-05-01T16:15:27.117Z,99
2023-05-01T16:17:06.885Z,100
2023-05-01T16:18:46.660Z,100
2023-05-01T16:20:26.479Z,100
2023-05-01T16:22:06.175Z,100
2023-05-01T16:23:45.932Z,97
2023-05-01T16:25:25.692Z,99
2023-05-01T16:27:05.512Z,100
2023-05-01T16:28:45.274Z,99
2023-05-01T16:30:24.999Z,100
2023-05-01T16:32:04.782Z,98
2023-05-01T16:33:44.506Z,99
2023-05-01T16:35:24.315Z,98
2023-05-01T16:37:04.127Z,98
2023-05-01T16:38:43.821Z,98
2023-05-01T16:40:23.700Z,97
2023-05-01T16:42:03.341Z,100
2023-05-01T16:43:43.149Z,100
2023-05-01T16:45:22.911Z,100
2023-05-01T16:47:02.677Z,99
2023-05-01T16:48:42.389Z,100
2023-05-01T16:50:22.163Z,100
2023-05-01T16:52:01.918Z,100
2023-05-01T16:53:41.675Z,100
2023-05-01T16:55:21.482Z,100
2023-05-01T16:57:01.227Z,100
2023-05-01T16:58:40.965Z,99
2023-05-01T17:00:20.830Z,100
2023-05-01T17:02:00.536Z,100
2023-05-01T17:03:40.410Z,97
2023-05-01T17:05:20.056Z,97
2023-05-01T17:06:59.804Z,100
2023-05-01T17:08:39.720Z,97
2023-05-01T17:10:19.466Z,100
2023-05-01T17:11:59.191Z,100
2023-05-01T17:13:38.854Z,97
2023-05-01T17:15:18.624Z,100
2023-05-01T17:16:58.385Z,100
2023-05-01T17:18:38.158Z,100
2023-05-01T17:20:17.979Z,99
2023-05-01T17:21:57.691Z,100
2023-05-01T17:23:37.490Z,100
2023-05-01T17:25:17.219Z,100
2023-05-01T17:26:57.087Z,98
2023-05-01T17:28:36.738Z,100
2023-05-01T17:31:56.391Z,100
2023-05-01T17:33:36.001Z,100
2023-05-01T17:35:15.782Z,100
2023-05-01T17:36:55.564Z,100
2023-05-01T17:38:35.310Z,100
2023-05-01T17:40:15.138Z,98
2023-05-01T17:41:54.887Z,97
2023-05-01T17:43:34.601Z,100
2023-05-01T17:45:14.374Z,100
2023-05-01T17:48:33.952Z,98
2023-05-01T17:50:13.793Z,100
2023-05-01T17:51:53.599Z,98
2023-05-01T17:53:33.186Z,100
2023-05-01T17:56:52.726Z,100
2023-05-01T17:58:32.486Z,100
2023-05-01T18:00:12.246Z,100
2023-05-01T18:01:52.079Z,100
2023-05-01T18:03:31.825Z,100
2023-05-01T18:05:11.636Z,100
2023-05-01T18:06:51.304Z,91
2023-05-01T18:08:31.152Z,82
2023-05-01T18:10:11.014Z,79
2023-05-01T18:11:50.588Z,77
2023-05-01T18:13:30.428Z,77
2023-05-01T18:15:10.138Z,77
2023-05-01T18:16:50.000Z,76
2023-05-01T18:18:29.677Z,75
2023-05-01T18:20:09.415Z,74
2023-05-01T18:21:49.236Z,73
2023-05-01T18:23:29.063Z,73
2023-05-01T18:25:08.789Z,72
2023-05-01T18:26:48.573Z,73
2023-05-01T18:28:28.320Z,72
2023-05-01T18:30:08.214Z,72
2023-05-01T18:31:47.818Z,71
2023-05-01T18:33:27.593Z,71
2023-05-01T18:35:07.383Z,71
2023-05-01T18:36:47.205Z,71
2023-05-01T18:38:26.865Z,71
2023-05-01T18:40:06.686Z,71
2023-05-01T18:41:46.349Z,70
2023-05-01T18:43:26.197Z,70
2023-05-01T18:45:05.882Z,70
2023-05-01T18:46:45.633Z,70
2023-05-01T18:48:25.399Z,70
2023-05-01T18:51:44.920Z,70
2023-05-01T18:53:24.697Z,70
2023-05-01T18:55:04.473Z,70
2023-05-01T18:56:44.217Z,70
2023-05-01T18:58:24.084Z,70
2023-05-01T19:00:03.874Z,70
2023-05-01T19:03:23.349Z,70
2023-05-01T19:06:42.808Z,70
2023-05-01T19:08:22.561Z,70
2023-05-01T19:11:42.093Z,70
2023-05-01T19:13:21.892Z,70
2023-05-01T19:16:41.390Z,70
2023-05-01T19:18:21.150Z,69
2023-05-01T19:20:01.154Z,69
2023-05-01T19:21:40.754Z,69
2023-05-01T19:23:20.557Z,69
2023-05-01T19:25:00.265Z,69
2023-05-01T19:26:40.016Z,69
2023-05-01T19:28:19.835Z,69
2023-05-01T19:29:59.673Z,69
2023-05-01T19:31:39.258Z,69
2023-05-01T19:33:19.033Z,69
2023-05-01T19:34:58.838Z,69
2023-05-01T19:36:38.571Z,69
2023-05-01T19:38:18.322Z,69
2023-05-01T19:39:58.121Z,69
2023-05-01T19:41:38.013Z,69
2023-05-01T19:44:57.379Z,68
2023-05-01T19:46:37.132Z,68
2023-05-01T19:48:16.922Z,68
2023-05-01T19:49:56.863Z,69
2023-05-01T19:51:36.467Z,68
2023-05-01T19:53:16.204Z,69
2023-05-01T19:54:55.964Z,69
2023-05-01T19:56:35.762Z,69
2023-05-01T19:58:15.478Z,69
2023-05-01T19:59:55.250Z,69
2023-05-01T20:01:35.146Z,69
2023-05-01T20:03:14.793Z,69
2023-05-01T20:04:54.571Z,69
2023-05-01T20:06:34.301Z,68
2023-05-01T20:08:14.112Z,69
2023-05-01T20:09:53.941Z,68
2023-05-01T20:13:13.389Z,69
2023-05-01T20:14:53.193Z,68
2023-05-01T20:16:32.927Z,68
2023-05-01T20:18:12.650Z,68
2023-05-01T20:19:52.444Z,68
2023-05-01T20:23:11.964Z,68
2023-05-01T20:24:51.819Z,68
2023-05-01T20:26:31.474Z,68
2023-05-01T20:28:11.306Z,68
2023-05-01T20:29:51.215Z,68
2023-05-01T20:34:50.334Z,68
2023-05-01T20:36:30.133Z,67
2023-05-01T20:38:09.821Z,68
2023-05-01T20:39:49.723Z,67
2023-05-01T20:41:29.406Z,68
2023-05-01T20:43:09.140Z,68
2023-05-01T20:44:49.048Z,68
2023-05-01T20:46:28.666Z,68
2023-05-01T20:48:08.401Z,67
2023-05-01T20:51:27.959Z,67
2023-05-01T20:53:07.707Z,67
2023-05-01T20:54:47.571Z,67
2023-05-01T20:56:27.229Z,67
2023-05-01T20:58:07.107Z,67
2023-05-01T20:59:46.901Z,67
2023-05-01T21:03:06.315Z,67
2023-05-01T21:04:46.067Z,67
2023-05-01T21:06:25.882Z,67
2023-05-01T21:08:05.564Z,67
2023-05-01T21:09:45.424Z,67
2023-05-01T21:11:25.185Z,67
2023-05-01T21:13:04.869Z,67
2023-05-01T21:14:44.660Z,67
2023-05-01T21:16:24.394Z,67
2023-05-01T21:18:04.196Z,67
2023-05-01T21:19:44.018Z,67
2023-05-01T21:21:23.754Z,67
2023-05-01T21:24:43.235Z,67
2023-05-01T21:26:22.972Z,67
2023-05-01T21:28:02.737Z,67
2023-05-01T21:29:42.514Z,67
2023-05-01T21:31:22.372Z,67
2023-05-01T21:33:02.035Z,67
2023-05-01T21:34:41.884Z,67
2023-05-01T21:36:21.551Z,67
2023-05-01T21:38:01.337Z,67
2023-05-01T21:39:41.078Z,67
2023-05-01T21:41:20.936Z,67
2023-05-01T21:43:00.654Z,67
2023-05-01T21:44:40.406Z,67
2023-05-01T21:46:20.150Z,67
2023-05-01T21:47:59.917Z,67
2023-05-01T21:49:39.709Z,67
2023-05-01T21:51:19.520Z,67
2023-05-01T21:52:59.195Z,67
2023-05-01T21:54:39.034Z,67
2023-05-01T21:57:58.486Z,67
2023-05-01T21:59:38.281Z,67
2023-05-01T22:02:57.831Z,66
2023-05-01T22:04:37.614Z,66
2023-05-01T22:07:57.062Z,66
2023-05-01T22:09:36.861Z,66
2023-05-01T22:11:16.606Z,66
2023-05-01T22:12:56.489Z,66
2023-05-01T22:14:36.139Z,66
2023-05-01T22:16:15.893Z,66
2023-05-01T22:17:55.762Z,66
2023-05-01T22:19:35.428Z,66
2023-05-01T22:21:15.221Z,66
2023-05-01T22:22:55.040Z,66
2023-05-01T22:24:34.727Z,66
2023-05-01T22:26:14.572Z,66
2023-05-01T22:27:54.386Z,66
2023-05-01T22:29:34.103Z,66
2023-05-01T22:31:13.838Z,66
2023-05-01T22:32:53.527Z,66
2023-05-01T22:34:33.290Z,66
2023-05-01T22:36:13.062Z,65
2023-05-01T22:37:52.831Z,66
2023-05-01T22:39:32.593Z,66
2023-05-01T22:41:12.475Z,66
2023-05-01T22:42:52.127Z,66
2023-05-01T22:46:11.687Z,66
2023-05-01T22:47:51.445Z,65
2023-05-01T22:49:31.169Z,66
2023-05-01T22:51:11.039Z,65
2023-05-01T22:52:50.864Z,66
2023-05-01T22:54:30.463Z,65
2023-05-01T22:56:10.231Z,66
2023-05-01T22:57:50.011Z,66
2023-05-01T22:59:29.813Z,66
2023-05-01T23:01:09.657Z,66
2023-05-01T23:04:29.038Z,66
2023-05-01T23:06:08.818Z,66
2023-05-01T23:07:48.646Z,66
2023-05-01T23:09:28.348Z,66
2023-05-01T23:11:08.106Z,66
2023-05-01T23:12:47.870Z,66
2023-05-01T23:14:27.686Z,65
2023-05-01T23:16:07.387Z,66
2023-05-01T23:17:47.207Z,65
2023-05-01T23:19:26.990Z,66
2023-05-01T23:21:06.670Z,65
2023-05-01T23:22:46.601Z,65
2023-05-01T23:24:26.256Z,65
2023-05-01T23:26:06.003Z,65
2023-05-01T23:27:45.778Z,65
2023-05-01T23:29:25.523Z,65
2023-05-01T23:31:05.343Z,65
2023-05-01T23:32:45.036Z,65
2023-05-01T23:34:24.795Z,65
2023-05-01T23:36:04.584Z,65
2023-05-01T23:37:44.332Z,65
2023-05-01T23:39:24.086Z,65
2023-05-01T23:41:03.870Z,65
2023-05-01T23:42:43.621Z,65
2023-05-01T23:46:03.168Z,65
2023-05-01T23:47:42.897Z,65
2023-05-01T23:51:02.543Z,65
2023-05-01T23:52:42.285Z,64
2023-05-01T23:54:22.085Z,65
2023-05-01T23:56:01.742Z,65
2023-05-01T23:57:41.609Z,65
2023-05-01T23:59:21.288Z,64
